Cordillera, Colorado
Current Conditions -  °F | °C
As of 12:50 PM on Sunday 21 Dec 2014 (Local Time) from KEGE Reporting Station
Light Snow Light Snow  
Wind Chill: 30°   Ceiling: 3400
Heat Index: 34°   Visibility: 5mi
Dew Point: 30°   Wind: 5mph
Humidity: 87%   Direction: 250°WSW
Pressure: 29.88"   Gusts: NA
Location:  39.4746°N, 106.605°W
Report Text: KEGE 211950Z 25004KT 5SM -SN BR SCT029 OVC034 01/M01 A2988
Loading
Personal Weather Stations






























Interactive Weather Map New forecast layout! Learn more

10-Day Weather Forecast

Advertisements
Track Severe Weather on mobile